Time,TemperatureF,DewpointF,PressureIn,WindDirection,WindDirectionDegrees,WindSpeedMPH,WindSpeedGustMPH,Humidity,HourlyPrecipIn,Conditions,Clouds,dailyrainin,SoftwareType,DateUTC
2013-04-28 00:00:00,43.2,37.4,30.32,SSW,198,0.0,0.0,80,0.00,,,0.00,Wunderground v.1.15,2013-04-28 04:00:00,
2013-04-28 00:01:00,43.1,37.3,30.33,SSW,198,0.0,0.0,80,0.00,,,0.00,Wunderground v.1.15,2013-04-28 04:01:00,
2013-04-28 00:02:00,43.1,37.7,30.33,SSW,198,0.0,0.0,81,0.00,,,0.00,Wunderground v.1.15,2013-04-28 04:02:00,
2013-04-28 00:03:00,43.1,37.7,30.33,SSW,198,0.0,0.0,81,0.00,,,0.00,Wunderground v.1.15,2013-04-28 04:03:00,
2013-04-28 00:05:00,43.0,37.6,30.32,SSW,198,0.0,0.0,81,0.00,,,0.00,Wunderground v.1.15,2013-04-28 04:05:00,
2013-04-28 00:10:00,42.9,37.5,30.32,SSW,198,0.0,0.0,81,0.00,,,0.00,Wunderground v.1.15,2013-04-28 04:10:00,
2013-04-28 00:15:00,42.7,37.6,30.32,SSW,198,0.0,0.0,82,0.00,,,0.00,Wunderground v.1.15,2013-04-28 04:15:00,
2013-04-28 00:21:00,42.5,37.4,30.32,SSW,198,0.0,2.0,82,0.00,,,0.00,Wunderground v.1.15,2013-04-28 04:21:00,
2013-04-28 00:26:00,42.3,37.2,30.32,SSW,198,0.0,2.0,82,0.00,,,0.00,Wunderground v.1.15,2013-04-28 04:26:00,
2013-04-28 00:32:00,42.1,37.3,30.32,SSW,198,0.0,0.0,83,0.00,,,0.00,Wunderground v.1.15,2013-04-28 04:32:00,
2013-04-28 00:37:00,41.9,37.1,30.32,SSW,198,0.0,1.0,83,0.00,,,0.00,Wunderground v.1.15,2013-04-28 04:37:00,
2013-04-28 00:43:00,41.7,37.2,30.32,SSW,198,1.0,2.0,84,0.00,,,0.00,Wunderground v.1.15,2013-04-28 04:43:00,
2013-04-28 00:48:00,41.5,37.0,30.32,SSW,198,1.0,2.0,84,0.00,,,0.00,Wunderground v.1.15,2013-04-28 04:48:00,
2013-04-28 00:55:00,41.3,37.1,30.31,SSW,198,0.0,1.0,85,0.00,,,0.00,Wunderground v.1.15,2013-04-28 04:55:00,
2013-04-28 01:01:00,41.1,36.9,30.31,SSW,196,1.0,1.0,85,0.00,,,0.00,Wunderground v.1.15,2013-04-28 05:01:00,
2013-04-28 01:06:00,41.0,36.8,30.31,SSW,196,1.0,1.0,85,0.00,,,0.00,Wunderground v.1.15,2013-04-28 05:06:00,
2013-04-28 01:12:00,40.8,36.6,30.31,SSW,195,1.0,1.0,85,0.00,,,0.00,Wunderground v.1.15,2013-04-28 05:12:00,
2013-04-28 01:18:00,40.7,36.8,30.31,SE,136,1.0,1.0,86,0.00,,,0.00,Wunderground v.1.15,2013-04-28 05:18:00,
2013-04-28 01:23:00,40.6,36.7,30.31,SE,136,0.0,1.0,86,0.00,,,0.00,Wunderground v.1.15,2013-04-28 05:23:00,
2013-04-28 01:30:00,40.6,36.7,30.31,SE,136,0.0,0.0,86,0.00,,,0.00,Wunderground v.1.15,2013-04-28 05:30:00,
2013-04-28 01:35:00,40.5,36.6,30.31,SE,136,0.0,0.0,86,0.00,,,0.00,Wunderground v.1.15,2013-04-28 05:35:00,
2013-04-28 01:41:00,40.3,36.4,30.30,SE,136,0.0,0.0,86,0.00,,,0.00,Wunderground v.1.15,2013-04-28 05:41:00,
2013-04-28 01:47:00,40.3,36.7,30.30,SE,136,0.0,0.0,87,0.00,,,0.00,Wunderground v.1.15,2013-04-28 05:47:00,
2013-04-28 01:53:00,40.3,36.7,30.30,SE,136,0.0,0.0,87,0.00,,,0.00,Wunderground v.1.15,2013-04-28 05:53:00,
2013-04-28 01:58:00,40.2,36.6,30.30,SE,136,0.0,1.0,87,0.00,,,0.00,Wunderground v.1.15,2013-04-28 05:58:00,
2013-04-28 02:03:00,40.1,36.5,30.30,SE,136,0.0,1.0,87,0.00,,,0.00,Wunderground v.1.15,2013-04-28 06:03:00,
2013-04-28 02:10:00,40.0,36.4,30.30,SE,136,0.0,0.0,87,0.00,,,0.00,Wunderground v.1.15,2013-04-28 06:10:00,
2013-04-28 02:16:00,39.9,36.3,30.30,SE,136,0.0,0.0,87,0.00,,,0.00,Wunderground v.1.15,2013-04-28 06:16:00,
2013-04-28 02:21:00,39.7,36.1,30.30,SE,136,0.0,0.0,87,0.00,,,0.00,Wunderground v.1.15,2013-04-28 06:21:00,
2013-04-28 02:27:00,39.6,36.0,30.30,SE,136,0.0,0.0,87,0.00,,,0.00,Wunderground v.1.15,2013-04-28 06:27:00,
2013-04-28 02:33:00,39.5,36.0,30.29,SE,136,0.0,0.0,87,0.00,,,0.00,Wunderground v.1.15,2013-04-28 06:33:00,
2013-04-28 02:40:00,39.3,36.0,30.29,SE,136,0.0,0.0,88,0.00,,,0.00,Wunderground v.1.15,2013-04-28 06:40:00,
2013-04-28 02:45:00,39.3,36.0,30.29,SE,136,0.0,0.0,88,0.00,,,0.00,Wunderground v.1.15,2013-04-28 06:45:00,
2013-04-28 02:51:00,39.1,35.8,30.29,SE,136,0.0,0.0,88,0.00,,,0.00,Wunderground v.1.15,2013-04-28 06:51:00,
2013-04-28 02:57:00,39.0,35.7,30.29,SE,136,0.0,0.0,88,0.00,,,0.00,Wunderground v.1.15,2013-04-28 06:57:00,
2013-04-28 03:03:00,38.9,35.6,30.29,SE,136,0.0,0.0,88,0.00,,,0.00,Wunderground v.1.15,2013-04-28 07:03:00,
2013-04-28 03:08:00,38.7,35.5,30.29,SE,136,0.0,0.0,88,0.00,,,0.00,Wunderground v.1.15,2013-04-28 07:08:00,
2013-04-28 03:15:00,38.5,35.3,30.29,SE,136,0.0,0.0,88,0.00,,,0.00,Wunderground v.1.15,2013-04-28 07:15:00,
2013-04-28 03:21:00,38.4,35.2,30.29,SE,136,0.0,0.0,88,0.00,,,0.00,Wunderground v.1.15,2013-04-28 07:21:00,
2013-04-28 03:27:00,38.2,35.0,30.29,SE,136,0.0,0.0,88,0.00,,,0.00,Wunderground v.1.15,2013-04-28 07:27:00,
2013-04-28 03:33:00,38.1,34.9,30.29,SE,136,0.0,0.0,88,0.00,,,0.00,Wunderground v.1.15,2013-04-28 07:33:00,
2013-04-28 03:38:00,37.9,34.7,30.29,SE,136,0.0,0.0,88,0.00,,,0.00,Wunderground v.1.15,2013-04-28 07:38:00,
2013-04-28 03:45:00,37.8,34.8,30.29,SE,136,0.0,0.0,89,0.00,,,0.00,Wunderground v.1.15,2013-04-28 07:45:00,
2013-04-28 03:51:00,37.6,34.4,30.29,SE,136,0.0,0.0,88,0.00,,,0.00,Wunderground v.1.15,2013-04-28 07:51:00,
2013-04-28 03:56:00,37.4,34.2,30.29,SE,136,0.0,0.0,88,0.00,,,0.00,Wunderground v.1.15,2013-04-28 07:56:00,
2013-04-28 04:02:00,37.3,34.4,30.29,SE,136,0.0,0.0,89,0.00,,,0.00,Wunderground v.1.15,2013-04-28 08:02:00,
2013-04-28 04:07:00,37.2,34.3,30.29,SE,136,0.0,0.0,89,0.00,,,0.00,Wunderground v.1.15,2013-04-28 08:07:00,
2013-04-28 04:13:00,37.1,34.2,30.28,SE,136,0.0,0.0,89,0.00,,,0.00,Wunderground v.1.15,2013-04-28 08:13:00,
2013-04-28 04:18:00,37.0,34.1,30.28,SE,136,0.0,0.0,89,0.00,,,0.00,Wunderground v.1.15,2013-04-28 08:18:00,
2013-04-28 04:25:00,36.8,33.9,30.28,SE,136,0.0,0.0,89,0.00,,,0.00,Wunderground v.1.15,2013-04-28 08:25:00,
2013-04-28 04:31:00,36.6,33.7,30.28,SE,136,0.0,0.0,89,0.00,,,0.00,Wunderground v.1.15,2013-04-28 08:31:00,
2013-04-28 04:36:00,36.5,33.6,30.28,SE,136,0.0,0.0,89,0.00,,,0.00,Wunderground v.1.15,2013-04-28 08:36:00,
2013-04-28 04:42:00,36.4,33.5,30.28,SE,136,0.0,2.0,89,0.00,,,0.00,Wunderground v.1.15,2013-04-28 08:42:00,
2013-04-28 04:48:00,36.2,33.3,30.28,SE,136,1.0,2.0,89,0.00,,,0.00,Wunderground v.1.15,2013-04-28 08:48:00,
2013-04-28 04:55:00,36.0,33.1,30.28,SE,136,0.0,1.0,89,0.00,,,0.00,Wunderground v.1.15,2013-04-28 08:55:00,
2013-04-28 05:01:00,35.8,32.9,30.28,SE,136,0.0,0.0,89,0.00,,,0.00,Wunderground v.1.15,2013-04-28 09:01:00,
2013-04-28 05:06:00,35.7,32.8,30.28,SE,136,0.0,1.0,89,0.00,,,0.00,Wunderground v.1.15,2013-04-28 09:06:00,
2013-04-28 05:12:00,35.5,32.6,30.28,SE,136,1.0,1.0,89,0.00,,,0.00,Wunderground v.1.15,2013-04-28 09:12:00,
2013-04-28 05:17:00,35.3,32.4,30.28,SE,136,1.0,1.0,89,0.00,,,0.00,Wunderground v.1.15,2013-04-28 09:17:00,
2013-04-28 05:22:00,35.2,32.3,30.28,SE,136,1.0,1.0,89,0.00,,,0.00,Wunderground v.1.15,2013-04-28 09:22:00,
2013-04-28 05:28:00,35.0,32.1,30.28,SE,136,1.0,2.0,89,0.00,,,0.00,Wunderground v.1.15,2013-04-28 09:28:00,
2013-04-28 05:33:00,34.8,31.9,30.28,West,269,1.0,1.0,89,0.00,,,0.00,Wunderground v.1.15,2013-04-28 09:33:00,
2013-04-28 05:38:00,34.7,31.8,30.28,West,269,1.0,1.0,89,0.00,,,0.00,Wunderground v.1.15,2013-04-28 09:38:00,
2013-04-28 05:45:00,34.6,31.7,30.28,West,269,0.0,1.0,89,0.00,,,0.00,Wunderground v.1.15,2013-04-28 09:45:00,
2013-04-28 05:50:00,34.5,31.6,30.28,West,269,0.0,0.0,89,0.00,,,0.00,Wunderground v.1.15,2013-04-28 09:50:00,
2013-04-28 05:56:00,34.5,31.6,30.28,West,269,0.0,0.0,89,0.00,,,0.00,Wunderground v.1.15,2013-04-28 09:56:00,
2013-04-28 06:02:00,34.4,31.5,30.28,West,269,0.0,1.0,89,0.00,,,0.00,Wunderground v.1.15,2013-04-28 10:02:00,
2013-04-28 06:08:00,34.4,31.5,30.28,West,269,0.0,1.0,89,0.00,,,0.00,Wunderground v.1.15,2013-04-28 10:08:00,
2013-04-28 06:15:00,34.4,31.5,30.28,West,269,0.0,1.0,89,0.00,,,0.00,Wunderground v.1.15,2013-04-28 10:15:00,
2013-04-28 06:21:00,34.4,31.5,30.29,West,269,0.0,0.0,89,0.00,,,0.00,Wunderground v.1.15,2013-04-28 10:21:00,
2013-04-28 06:27:00,34.4,31.5,30.29,West,269,0.0,0.0,89,0.00,,,0.00,Wunderground v.1.15,2013-04-28 10:27:00,
2013-04-28 06:32:00,34.6,31.7,30.29,West,269,0.0,0.0,89,0.00,,,0.00,Wunderground v.1.15,2013-04-28 10:32:00,
2013-04-28 06:38:00,35.0,32.1,30.29,West,269,0.0,0.0,89,0.00,,,0.00,Wunderground v.1.15,2013-04-28 10:38:00,
2013-04-28 06:45:00,35.3,32.4,30.29,West,269,0.0,0.0,89,0.00,,,0.00,Wunderground v.1.15,2013-04-28 10:45:00,
2013-04-28 06:50:00,35.6,32.7,30.30,West,269,0.0,0.0,89,0.00,,,0.00,Wunderground v.1.15,2013-04-28 10:50:00,
2013-04-28 06:56:00,35.9,33.0,30.30,West,269,0.0,0.0,89,0.00,,,0.00,Wunderground v.1.15,2013-04-28 10:56:00,
2013-04-28 07:02:00,36.5,33.6,30.30,West,269,0.0,0.0,89,0.00,,,0.00,Wunderground v.1.15,2013-04-28 11:02:00,
2013-04-28 07:08:00,37.2,34.3,30.30,West,269,0.0,0.0,89,0.00,,,0.00,Wunderground v.1.15,2013-04-28 11:08:00,
2013-04-28 07:15:00,38.0,35.0,30.30,West,269,0.0,0.0,89,0.00,,,0.00,Wunderground v.1.15,2013-04-28 11:15:00,
2013-04-28 07:21:00,38.8,35.8,30.30,West,269,0.0,0.0,89,0.00,,,0.00,Wunderground v.1.15,2013-04-28 11:21:00,
2013-04-28 07:27:00,39.5,36.5,30.30,West,269,0.0,0.0,89,0.00,,,0.00,Wunderground v.1.15,2013-04-28 11:27:00,
2013-04-28 07:33:00,40.2,37.2,30.30,West,269,0.0,0.0,89,0.00,,,0.00,Wunderground v.1.15,2013-04-28 11:33:00,
2013-04-28 07:40:00,41.2,38.2,30.31,West,268,0.0,1.0,89,0.00,,,0.00,Wunderground v.1.15,2013-04-28 11:40:00,
2013-04-28 07:45:00,42.2,39.2,30.31,West,269,1.0,1.0,89,0.00,,,0.00,Wunderground v.1.15,2013-04-28 11:45:00,
2013-04-28 07:51:00,43.4,40.4,30.31,West,269,1.0,1.0,89,0.00,,,0.00,Wunderground v.1.15,2013-04-28 11:51:00,
2013-04-28 07:57:00,44.7,41.7,30.31,SW,219,1.0,1.0,89,0.00,,,0.00,Wunderground v.1.15,2013-04-28 11:57:00,
2013-04-28 08:02:00,45.7,42.6,30.31,SW,219,1.0,2.0,89,0.00,,,0.00,Wunderground v.1.15,2013-04-28 12:02:00,
2013-04-28 08:08:00,46.6,42.6,30.32,SW,219,1.0,2.0,86,0.00,,,0.00,Wunderground v.1.15,2013-04-28 12:08:00,
2013-04-28 08:15:00,47.5,42.3,30.32,SW,219,0.0,1.0,82,0.00,,,0.00,Wunderground v.1.15,2013-04-28 12:15:00,
2013-04-28 08:21:00,48.4,41.5,30.32,NE,34,1.0,2.0,77,0.00,,,0.00,Wunderground v.1.15,2013-04-28 12:21:00,
2013-04-28 08:27:00,49.3,40.3,30.32,NE,34,1.0,2.0,71,0.00,,,0.00,Wunderground v.1.15,2013-04-28 12:27:00,
2013-04-28 08:32:00,50.1,39.6,30.32,North,355,1.0,1.0,67,0.00,,,0.00,Wunderground v.1.15,2013-04-28 12:32:00,
2013-04-28 08:38:00,51.0,38.8,30.32,South,186,1.0,3.0,63,0.00,,,0.00,Wunderground v.1.15,2013-04-28 12:38:00,
2013-04-28 08:43:00,51.9,38.0,30.32,South,188,1.0,2.0,59,0.00,,,0.00,Wunderground v.1.15,2013-04-28 12:43:00,
2013-04-28 08:50:00,52.9,37.6,30.32,WNW,298,1.0,3.0,56,0.00,,,0.00,Wunderground v.1.15,2013-04-28 12:50:00,
2013-04-28 08:55:00,53.3,37.5,30.32,WNW,286,3.0,4.0,55,0.00,,,0.00,Wunderground v.1.15,2013-04-28 12:55:00,
2013-04-28 09:01:00,54.1,37.8,30.32,NW,319,2.0,2.0,54,0.00,,,0.00,Wunderground v.1.15,2013-04-28 13:01:00,
2013-04-28 09:06:00,54.7,37.4,30.32,West,273,1.0,4.0,52,0.00,,,0.00,Wunderground v.1.15,2013-04-28 13:06:00,
2013-04-28 09:11:00,55.6,37.7,30.32,WSW,241,2.0,3.0,51,0.00,,,0.00,Wunderground v.1.15,2013-04-28 13:11:00,
2013-04-28 09:17:00,56.5,37.6,30.32,South,191,2.0,3.0,49,0.00,,,0.00,Wunderground v.1.15,2013-04-28 13:17:00,
2013-04-28 09:23:00,57.1,38.1,30.32,WNW,291,1.0,2.0,49,0.00,,,0.00,Wunderground v.1.15,2013-04-28 13:23:00,
2013-04-28 09:28:00,57.6,38.6,30.31,NNW,346,1.0,2.0,49,0.00,,,0.00,Wunderground v.1.15,2013-04-28 13:28:00,
2013-04-28 09:35:00,58.7,38.5,30.31,SSE,163,1.0,3.0,47,0.00,,,0.00,Wunderground v.1.15,2013-04-28 13:35:00,
2013-04-28 09:40:00,59.0,38.2,30.31,SW,219,3.0,3.0,46,0.00,,,0.00,Wunderground v.1.15,2013-04-28 13:40:00,
2013-04-28 09:46:00,59.4,37.5,30.31,SSW,198,3.0,3.0,44,0.00,,,0.00,Wunderground v.1.15,2013-04-28 13:46:00,
2013-04-28 09:52:00,60.3,38.3,30.31,SSE,155,2.0,4.0,44,0.00,,,0.00,Wunderground v.1.15,2013-04-28 13:52:00,
2013-04-28 09:58:00,61.3,38.6,30.31,SSW,202,3.0,8.0,43,0.00,,,0.00,Wunderground v.1.15,2013-04-28 13:58:00,
2013-04-28 10:03:00,61.5,39.4,30.31,WNW,302,3.0,5.0,44,0.00,,,0.00,Wunderground v.1.15,2013-04-28 14:03:00,
2013-04-28 10:10:00,61.8,39.1,30.31,SW,214,3.0,3.0,43,0.00,,,0.00,Wunderground v.1.15,2013-04-28 14:10:00,
2013-04-28 10:16:00,62.4,41.3,30.31,SSE,165,2.0,4.0,46,0.00,,,0.00,Wunderground v.1.15,2013-04-28 14:16:00,
2013-04-28 10:22:00,63.1,39.6,30.31,WSW,240,4.0,5.0,42,0.00,,,0.00,Wunderground v.1.15,2013-04-28 14:22:00,
2013-04-28 10:27:00,63.4,41.1,30.31,SE,128,4.0,5.0,44,0.00,,,0.00,Wunderground v.1.15,2013-04-28 14:27:00,
2013-04-28 10:33:00,63.9,39.1,30.31,SSE,155,3.0,4.0,40,0.00,,,0.00,Wunderground v.1.15,2013-04-28 14:33:00,
2013-04-28 10:38:00,64.3,39.4,30.30,South,169,4.0,8.0,40,0.00,,,0.00,Wunderground v.1.15,2013-04-28 14:38:00,
2013-04-28 10:43:00,64.3,38.1,30.30,SSW,198,5.0,6.0,38,0.00,,,0.00,Wunderground v.1.15,2013-04-28 14:43:00,
2013-04-28 10:50:00,65.0,40.1,30.30,ESE,102,4.0,4.0,40,0.00,,,0.00,Wunderground v.1.15,2013-04-28 14:50:00,
2013-04-28 10:55:00,65.3,39.0,30.30,SSE,165,3.0,5.0,38,0.00,,,0.00,Wunderground v.1.15,2013-04-28 14:55:00,
2013-04-28 11:01:00,65.5,40.5,30.30,SE,134,3.0,3.0,40,0.00,,,0.00,Wunderground v.1.15,2013-04-28 15:01:00,
2013-04-28 11:07:00,66.4,39.3,30.30,NW,307,3.0,4.0,37,0.00,,,0.00,Wunderground v.1.15,2013-04-28 15:07:00,
2013-04-28 11:13:00,66.4,39.3,30.30,South,181,3.0,4.0,37,0.00,,,0.00,Wunderground v.1.15,2013-04-28 15:13:00,
2013-04-28 11:20:00,67.2,40.0,30.30,West,266,4.0,4.0,37,0.00,,,0.00,Wunderground v.1.15,2013-04-28 15:20:00,
2013-04-28 11:25:00,67.1,39.2,30.29,South,172,3.0,8.0,36,0.00,,,0.00,Wunderground v.1.15,2013-04-28 15:25:00,
2013-04-28 11:31:00,67.2,39.3,30.29,South,177,3.0,6.0,36,0.00,,,0.00,Wunderground v.1.15,2013-04-28 15:31:00,
2013-04-28 11:37:00,67.3,40.1,30.29,East,90,3.0,6.0,37,0.00,,,0.00,Wunderground v.1.15,2013-04-28 15:37:00,
2013-04-28 11:43:00,66.7,40.3,30.28,ESE,114,3.0,4.0,38,0.00,,,0.00,Wunderground v.1.15,2013-04-28 15:43:00,
2013-04-28 11:48:00,66.4,38.6,30.28,East,90,3.0,4.0,36,0.00,,,0.00,Wunderground v.1.15,2013-04-28 15:48:00,
2013-04-28 11:53:00,67.1,39.2,30.28,West,260,3.0,5.0,36,0.00,,,0.00,Wunderground v.1.15,2013-04-28 15:53:00,
2013-04-28 11:58:00,67.8,41.9,30.28,NE,38,3.0,5.0,39,0.00,,,0.00,Wunderground v.1.15,2013-04-28 15:58:00,
2013-04-28 12:03:00,68.6,40.6,30.28,South,183,2.0,3.0,36,0.00,,,0.00,Wunderground v.1.15,2013-04-28 16:03:00,
2013-04-28 12:10:00,69.5,39.9,30.28,SSW,209,3.0,7.0,34,0.00,,,0.00,Wunderground v.1.15,2013-04-28 16:10:00,
2013-04-28 12:15:00,69.2,39.6,30.28,SW,218,5.0,8.0,34,0.00,,,0.00,Wunderground v.1.15,2013-04-28 16:15:00,
2013-04-28 12:20:00,68.7,42.1,30.28,SE,144,5.0,6.0,38,0.00,,,0.00,Wunderground v.1.15,2013-04-28 16:20:00,
2013-04-28 12:25:00,68.3,39.6,30.28,SSE,161,4.0,6.0,35,0.00,,,0.00,Wunderground v.1.15,2013-04-28 16:25:00,
2013-04-28 12:31:00,68.2,39.5,30.27,SSE,165,3.0,6.0,35,0.00,,,0.00,Wunderground v.1.15,2013-04-28 16:31:00,
2013-04-28 12:36:00,68.1,39.4,30.27,South,189,3.0,6.0,35,0.00,,,0.00,Wunderground v.1.15,2013-04-28 16:36:00,
2013-04-28 12:42:00,68.8,42.1,30.27,SSE,155,4.0,5.0,38,0.00,,,0.00,Wunderground v.1.15,2013-04-28 16:42:00,
2013-04-28 12:48:00,70.4,40.7,30.27,SE,145,4.0,7.0,34,0.00,,,0.00,Wunderground v.1.15,2013-04-28 16:48:00,
2013-04-28 12:55:00,70.8,40.3,30.26,ESE,103,4.0,4.0,33,0.00,,,0.00,Wunderground v.1.15,2013-04-28 16:55:00,
2013-04-28 13:00:00,70.1,39.6,30.26,East,90,3.0,3.0,33,0.00,,,0.00,Wunderground v.1.15,2013-04-28 17:00:00,
2013-04-28 13:05:00,69.4,40.5,30.26,South,184,2.0,3.0,35,0.00,,,0.00,Wunderground v.1.15,2013-04-28 17:05:00,
2013-04-28 13:11:00,70.2,42.0,30.26,ESE,107,3.0,5.0,36,0.00,,,0.00,Wunderground v.1.15,2013-04-28 17:11:00,
2013-04-28 13:17:00,70.6,41.6,30.25,ENE,78,3.0,6.0,35,0.00,,,0.00,Wunderground v.1.15,2013-04-28 17:17:00,
2013-04-28 13:23:00,70.5,41.5,30.25,South,173,3.0,6.0,35,0.00,,,0.00,Wunderground v.1.15,2013-04-28 17:23:00,
2013-04-28 13:30:00,70.6,42.3,30.25,West,263,4.0,4.0,36,0.00,,,0.00,Wunderground v.1.15,2013-04-28 17:30:00,
2013-04-28 13:35:00,71.6,41.7,30.25,WSW,237,3.0,5.0,34,0.00,,,0.00,Wunderground v.1.15,2013-04-28 17:35:00,
2013-04-28 13:40:00,71.7,41.0,30.25,SSE,154,4.0,4.0,33,0.00,,,0.00,Wunderground v.1.15,2013-04-28 17:40:00,
2013-04-28 13:46:00,71.6,42.5,30.25,WSW,244,4.0,6.0,35,0.00,,,0.00,Wunderground v.1.15,2013-04-28 17:46:00,
2013-04-28 13:52:00,71.9,42.8,30.25,SSE,149,3.0,7.0,35,0.00,,,0.00,Wunderground v.1.15,2013-04-28 17:52:00,
2013-04-28 13:58:00,71.3,43.7,30.24,SSW,195,3.0,7.0,37,0.00,,,0.00,Wunderground v.1.15,2013-04-28 17:58:00,
2013-04-28 14:05:00,71.7,41.8,30.24,SSW,195,3.0,5.0,34,0.00,,,0.00,Wunderground v.1.15,2013-04-28 18:05:00,
2013-04-28 14:11:00,72.2,42.3,30.24,SE,143,3.0,4.0,34,0.00,,,0.00,Wunderground v.1.15,2013-04-28 18:11:00,
2013-04-28 14:17:00,72.7,43.5,30.24,SSE,156,3.0,4.0,35,0.00,,,0.00,Wunderground v.1.15,2013-04-28 18:17:00,
2013-04-28 14:22:00,72.9,42.9,30.24,SSE,150,3.0,4.0,34,0.00,,,0.00,Wunderground v.1.15,2013-04-28 18:22:00,
2013-04-28 14:27:00,72.7,42.7,30.24,South,177,4.0,7.0,34,0.00,,,0.00,Wunderground v.1.15,2013-04-28 18:27:00,
2013-04-28 14:33:00,72.6,42.6,30.24,SW,230,5.0,9.0,34,0.00,,,0.00,Wunderground v.1.15,2013-04-28 18:33:00,
2013-04-28 14:40:00,72.2,43.8,30.24,SSE,161,5.0,5.0,36,0.00,,,0.00,Wunderground v.1.15,2013-04-28 18:40:00,
2013-04-28 14:46:00,72.0,44.3,30.23,South,172,4.0,5.0,37,0.00,,,0.00,Wunderground v.1.15,2013-04-28 18:46:00,
2013-04-28 14:51:00,72.0,42.8,30.23,WSW,237,4.0,12.0,35,0.00,,,0.00,Wunderground v.1.15,2013-04-28 18:51:00,
2013-04-28 14:57:00,71.7,41.8,30.23,South,188,6.0,12.0,34,0.00,,,0.00,Wunderground v.1.15,2013-04-28 18:57:00,
2013-04-28 15:02:00,70.8,42.5,30.23,SSW,193,5.0,7.0,36,0.00,,,0.00,Wunderground v.1.15,2013-04-28 19:02:00,
2013-04-28 15:07:00,70.4,41.4,30.22,South,188,6.0,9.0,35,0.00,,,0.00,Wunderground v.1.15,2013-04-28 19:07:00,
2013-04-28 15:12:00,70.6,42.3,30.23,SSW,202,6.0,6.0,36,0.00,,,0.00,Wunderground v.1.15,2013-04-28 19:12:00,
2013-04-28 15:18:00,70.4,42.2,30.22,ESE,112,5.0,8.0,36,0.00,,,0.00,Wunderground v.1.15,2013-04-28 19:18:00,
2013-04-28 15:23:00,70.7,42.4,30.22,SE,129,4.0,5.0,36,0.00,,,0.00,Wunderground v.1.15,2013-04-28 19:23:00,
2013-04-28 15:30:00,70.7,42.4,30.22,SE,126,4.0,4.0,36,0.00,,,0.00,Wunderground v.1.15,2013-04-28 19:30:00,
2013-04-28 15:35:00,70.4,42.2,30.21,South,187,4.0,9.0,36,0.00,,,0.00,Wunderground v.1.15,2013-04-28 19:35:00,
2013-04-28 15:41:00,70.3,42.1,30.21,SE,143,5.0,5.0,36,0.00,,,0.00,Wunderground v.1.15,2013-04-28 19:41:00,
2013-04-28 15:46:00,70.0,42.5,30.21,SE,132,4.0,5.0,37,0.00,,,0.00,Wunderground v.1.15,2013-04-28 19:46:00,
2013-04-28 15:52:00,70.1,42.6,30.21,SW,219,5.0,8.0,37,0.00,,,0.00,Wunderground v.1.15,2013-04-28 19:52:00,
2013-04-28 15:57:00,69.9,41.7,30.21,SSW,213,6.0,9.0,36,0.00,,,0.00,Wunderground v.1.15,2013-04-28 19:57:00,
2013-04-28 16:02:00,69.5,40.6,30.21,SSE,149,6.0,8.0,35,0.00,,,0.00,Wunderground v.1.15,2013-04-28 20:02:00,
2013-04-28 16:08:00,69.3,41.2,30.22,ESE,109,5.0,11.0,36,0.00,,,0.00,Wunderground v.1.15,2013-04-28 20:08:00,
2013-04-28 16:13:00,69.0,40.9,30.21,ESE,102,5.0,6.0,36,0.00,,,0.00,Wunderground v.1.15,2013-04-28 20:13:00,
2013-04-28 16:18:00,68.3,41.0,30.21,East,91,4.0,7.0,37,0.00,,,0.00,Wunderground v.1.15,2013-04-28 20:18:00,
2013-04-28 16:25:00,68.0,39.3,30.21,SSE,148,5.0,8.0,35,0.00,,,0.00,Wunderground v.1.15,2013-04-28 20:25:00,
2013-04-28 16:30:00,67.5,39.6,30.20,South,188,5.0,5.0,36,0.00,,,0.00,Wunderground v.1.15,2013-04-28 20:30:00,
2013-04-28 16:36:00,67.7,39.0,30.20,SE,127,5.0,5.0,35,0.00,,,0.00,Wunderground v.1.15,2013-04-28 20:36:00,
2013-04-28 16:41:00,67.6,39.7,30.20,SE,146,5.0,11.0,36,0.00,,,0.00,Wunderground v.1.15,2013-04-28 20:41:00,
2013-04-28 16:47:00,67.2,40.0,30.20,SE,126,5.0,11.0,37,0.00,,,0.00,Wunderground v.1.15,2013-04-28 20:47:00,
2013-04-28 16:52:00,66.9,39.8,30.21,East,101,4.0,5.0,37,0.00,,,0.00,Wunderground v.1.15,2013-04-28 20:52:00,
2013-04-28 16:58:00,66.4,40.0,30.21,ESE,113,4.0,5.0,38,0.00,,,0.00,Wunderground v.1.15,2013-04-28 20:58:00,
2013-04-28 17:03:00,66.1,39.1,30.21,SE,146,4.0,8.0,37,0.00,,,0.00,Wunderground v.1.15,2013-04-28 21:03:00,
2013-04-28 17:10:00,65.8,38.8,30.21,SE,142,5.0,5.0,37,0.00,,,0.00,Wunderground v.1.15,2013-04-28 21:10:00,
2013-04-28 17:16:00,65.4,39.1,30.21,ESE,106,5.0,8.0,38,0.00,,,0.00,Wunderground v.1.15,2013-04-28 21:16:00,
2013-04-28 17:21:00,65.3,39.0,30.21,East,86,4.0,4.0,38,0.00,,,0.00,Wunderground v.1.15,2013-04-28 21:21:00,
2013-04-28 17:26:00,64.9,38.7,30.20,SSE,159,4.0,7.0,38,0.00,,,0.00,Wunderground v.1.15,2013-04-28 21:26:00,
2013-04-28 17:32:00,64.9,38.7,30.20,SE,126,4.0,8.0,38,0.00,,,0.00,Wunderground v.1.15,2013-04-28 21:32:00,
2013-04-28 17:38:00,64.5,38.3,30.20,SE,135,5.0,11.0,38,0.00,,,0.00,Wunderground v.1.15,2013-04-28 21:38:00,
2013-04-28 17:43:00,63.9,37.8,30.21,SSW,205,6.0,11.0,38,0.00,,,0.00,Wunderground v.1.15,2013-04-28 21:43:00,
2013-04-28 17:48:00,63.6,38.2,30.21,SE,146,4.0,11.0,39,0.00,,,0.00,Wunderground v.1.15,2013-04-28 21:48:00,
2013-04-28 17:55:00,62.7,37.4,30.21,SE,134,4.0,14.0,39,0.00,,,0.00,Wunderground v.1.15,2013-04-28 21:55:00,
2013-04-28 18:01:00,62.1,37.5,30.21,ESE,113,5.0,7.0,40,0.00,,,0.00,Wunderground v.1.15,2013-04-28 22:01:00,
2013-04-28 18:07:00,61.8,37.8,30.20,SE,141,4.0,7.0,41,0.00,,,0.00,Wunderground v.1.15,2013-04-28 22:07:00,
2013-04-28 18:13:00,61.7,37.7,30.20,SSW,202,4.0,6.0,41,0.00,,,0.00,Wunderground v.1.15,2013-04-28 22:13:00,
2013-04-28 18:18:00,61.7,38.4,30.20,ESE,118,4.0,7.0,42,0.00,,,0.00,Wunderground v.1.15,2013-04-28 22:18:00,
2013-04-28 18:25:00,61.3,36.8,30.21,SSE,167,4.0,9.0,40,0.00,,,0.00,Wunderground v.1.15,2013-04-28 22:25:00,
2013-04-28 18:31:00,61.1,37.8,30.21,SSE,148,4.0,4.0,42,0.00,,,0.00,Wunderground v.1.15,2013-04-28 22:31:00,
2013-04-28 18:36:00,60.8,37.5,30.21,ESE,109,3.0,4.0,42,0.00,,,0.00,Wunderground v.1.15,2013-04-28 22:36:00,
2013-04-28 18:41:00,60.3,37.1,30.21,SE,126,3.0,7.0,42,0.00,,,0.00,Wunderground v.1.15,2013-04-28 22:41:00,
2013-04-28 18:47:00,59.8,37.2,30.21,South,187,3.0,7.0,43,0.00,,,0.00,Wunderground v.1.15,2013-04-28 22:47:00,
2013-04-28 18:52:00,59.4,36.9,30.21,SE,129,2.0,3.0,43,0.00,,,0.00,Wunderground v.1.15,2013-04-28 22:52:00,
2013-04-28 18:57:00,59.0,36.5,30.21,SSE,163,2.0,3.0,43,0.00,,,0.00,Wunderground v.1.15,2013-04-28 22:57:00,
2013-04-28 19:03:00,58.8,36.9,30.21,ENE,65,3.0,6.0,44,0.00,,,0.00,Wunderground v.1.15,2013-04-28 23:03:00,
2013-04-28 19:10:00,58.2,36.4,30.21,SE,126,3.0,3.0,44,0.00,,,0.00,Wunderground v.1.15,2013-04-28 23:10:00,
2013-04-28 19:16:00,57.9,36.7,30.21,SSE,167,3.0,7.0,45,0.00,,,0.00,Wunderground v.1.15,2013-04-28 23:16:00,
2013-04-28 19:21:00,57.6,37.0,30.21,SE,139,3.0,3.0,46,0.00,,,0.00,Wunderground v.1.15,2013-04-28 23:21:00,
2013-04-28 19:27:00,57.2,36.0,30.21,SSE,161,3.0,4.0,45,0.00,,,0.00,Wunderground v.1.15,2013-04-28 23:27:00,
2013-04-28 19:33:00,56.9,35.8,30.22,SSE,167,3.0,3.0,45,0.00,,,0.00,Wunderground v.1.15,2013-04-28 23:33:00,
2013-04-28 19:38:00,56.7,35.6,30.22,SSE,149,3.0,4.0,45,0.00,,,0.00,Wunderground v.1.15,2013-04-28 23:38:00,
2013-04-28 19:45:00,56.4,35.9,30.22,South,176,3.0,7.0,46,0.00,,,0.00,Wunderground v.1.15,2013-04-28 23:45:00,
2013-04-28 19:50:00,56.1,36.1,30.22,South,186,3.0,3.0,47,0.00,,,0.00,Wunderground v.1.15,2013-04-28 23:50:00,
2013-04-28 19:56:00,55.8,36.4,30.21,NE,36,2.0,3.0,48,0.00,,,0.00,Wunderground v.1.15,2013-04-28 23:56:00,
2013-04-28 20:02:00,55.4,36.0,30.21,South,183,2.0,3.0,48,0.00,,,0.00,Wunderground v.1.15,2013-04-29 00:02:00,
2013-04-28 20:08:00,55.0,35.7,30.21,SE,137,2.0,5.0,48,0.00,,,0.00,Wunderground v.1.15,2013-04-29 00:08:00,
2013-04-28 20:15:00,54.7,35.4,30.21,SSW,212,2.0,3.0,48,0.00,,,0.00,Wunderground v.1.15,2013-04-29 00:15:00,
2013-04-28 20:21:00,54.4,35.6,30.22,South,172,2.0,2.0,49,0.00,,,0.00,Wunderground v.1.15,2013-04-29 00:21:00,
2013-04-28 20:27:00,54.1,35.3,30.22,SSE,156,2.0,3.0,49,0.00,,,0.00,Wunderground v.1.15,2013-04-29 00:27:00,
2013-04-28 20:32:00,53.8,35.1,30.22,SW,223,2.0,3.0,49,0.00,,,0.00,Wunderground v.1.15,2013-04-29 00:32:00,
2013-04-28 20:38:00,53.6,34.9,30.22,South,174,2.0,6.0,49,0.00,,,0.00,Wunderground v.1.15,2013-04-29 00:38:00,
2013-04-28 20:45:00,53.3,34.6,30.22,SSW,205,2.0,4.0,49,0.00,,,0.00,Wunderground v.1.15,2013-04-29 00:45:00,
2013-04-28 20:51:00,53.1,33.9,30.22,SSE,153,2.0,2.0,48,0.00,,,0.00,Wunderground v.1.15,2013-04-29 00:51:00,
2013-04-28 20:56:00,52.9,34.8,30.23,SSE,150,2.0,4.0,50,0.00,,,0.00,Wunderground v.1.15,2013-04-29 00:56:00,
2013-04-28 21:02:00,52.7,33.5,30.23,SSE,158,3.0,3.0,48,0.00,,,0.00,Wunderground v.1.15,2013-04-29 01:02:00,
2013-04-28 21:08:00,52.5,34.4,30.23,South,173,3.0,4.0,50,0.00,,,0.00,Wunderground v.1.15,2013-04-29 01:08:00,
2013-04-28 21:15:00,52.2,34.1,30.24,SW,226,3.0,5.0,50,0.00,,,0.00,Wunderground v.1.15,2013-04-29 01:15:00,
2013-04-28 21:21:00,51.9,33.8,30.24,SSE,155,3.0,3.0,50,0.00,,,0.00,Wunderground v.1.15,2013-04-29 01:21:00,
2013-04-28 21:26:00,51.7,33.6,30.24,SE,136,2.0,3.0,50,0.00,,,0.00,Wunderground v.1.15,2013-04-29 01:26:00,
2013-04-28 21:32:00,51.5,33.0,30.24,SSW,192,2.0,4.0,49,0.00,,,0.00,Wunderground v.1.15,2013-04-29 01:32:00,
2013-04-28 21:38:00,51.3,33.3,30.24,SSW,211,2.0,4.0,50,0.00,,,0.00,Wunderground v.1.15,2013-04-29 01:38:00,
2013-04-28 21:45:00,51.1,32.1,30.24,SW,218,2.0,5.0,48,0.00,,,0.00,Wunderground v.1.15,2013-04-29 01:45:00,
2013-04-28 21:50:00,51.0,31.5,30.24,South,188,3.0,3.0,47,0.00,,,0.00,Wunderground v.1.15,2013-04-29 01:50:00,
2013-04-28 21:56:00,50.9,31.9,30.24,South,175,3.0,4.0,48,0.00,,,0.00,Wunderground v.1.15,2013-04-29 01:56:00,
2013-04-28 22:02:00,50.7,31.2,30.24,SE,136,3.0,3.0,47,0.00,,,0.00,Wunderground v.1.15,2013-04-29 02:02:00,
2013-04-28 22:07:00,50.6,29.5,30.24,SSW,203,3.0,6.0,44,0.00,,,0.00,Wunderground v.1.15,2013-04-29 02:07:00,
2013-04-28 22:12:00,50.6,30.0,30.24,SSE,163,3.0,4.0,45,0.00,,,0.00,Wunderground v.1.15,2013-04-29 02:12:00,
2013-04-28 22:17:00,50.5,29.9,30.24,South,174,3.0,5.0,45,0.00,,,0.00,Wunderground v.1.15,2013-04-29 02:17:00,
2013-04-28 22:22:00,50.5,29.9,30.24,SSW,203,3.0,3.0,45,0.00,,,0.00,Wunderground v.1.15,2013-04-29 02:22:00,
2013-04-28 22:27:00,50.4,29.8,30.25,SSE,157,3.0,4.0,45,0.00,,,0.00,Wunderground v.1.15,2013-04-29 02:27:00,
2013-04-28 22:33:00,50.2,29.7,30.25,SSW,196,2.0,3.0,45,0.00,,,0.00,Wunderground v.1.15,2013-04-29 02:33:00,
2013-04-28 22:38:00,50.1,29.0,30.25,South,179,2.0,3.0,44,0.00,,,0.00,Wunderground v.1.15,2013-04-29 02:38:00,
2013-04-28 22:45:00,49.9,28.8,30.25,South,190,2.0,4.0,44,0.00,,,0.00,Wunderground v.1.15,2013-04-29 02:45:00,
2013-04-28 22:50:00,49.7,29.2,30.25,SSW,196,2.0,2.0,45,0.00,,,0.00,Wunderground v.1.15,2013-04-29 02:50:00,
2013-04-28 22:56:00,49.5,29.0,30.24,SW,217,2.0,2.0,45,0.00,,,0.00,Wunderground v.1.15,2013-04-29 02:56:00,
2013-04-28 23:02:00,49.2,29.3,30.24,SSW,198,2.0,4.0,46,0.00,,,0.00,Wunderground v.1.15,2013-04-29 03:02:00,
2013-04-28 23:08:00,49.1,29.7,30.25,South,176,2.0,5.0,47,0.00,,,0.00,Wunderground v.1.15,2013-04-29 03:08:00,
2013-04-28 23:15:00,48.9,30.6,30.25,South,186,2.0,3.0,49,0.00,,,0.00,Wunderground v.1.15,2013-04-29 03:15:00,
2013-04-28 23:20:00,48.8,31.0,30.25,SSE,166,2.0,2.0,50,0.00,,,0.00,Wunderground v.1.15,2013-04-29 03:20:00,
2013-04-28 23:26:00,48.7,31.4,30.25,South,186,2.0,3.0,51,0.00,,,0.00,Wunderground v.1.15,2013-04-29 03:26:00,
2013-04-28 23:32:00,48.6,31.8,30.25,SSW,196,2.0,2.0,52,0.00,,,0.00,Wunderground v.1.15,2013-04-29 03:32:00,
2013-04-28 23:38:00,48.6,32.2,30.25,South,169,2.0,3.0,53,0.00,,,0.00,Wunderground v.1.15,2013-04-29 03:38:00,
2013-04-28 23:45:00,48.5,33.5,30.26,SW,214,2.0,3.0,56,0.00,,,0.00,Wunderground v.1.15,2013-04-29 03:45:00,
2013-04-28 23:50:00,48.3,34.2,30.25,SW,219,2.0,2.0,58,0.00,,,0.00,Wunderground v.1.15,2013-04-29 03:50:00,
2013-04-28 23:55:00,48.2,35.0,30.25,SSW,196,2.0,3.0,60,0.00,,,0.00,Wunderground v.1.15,2013-04-29 03:55:00,